Wind from 020 at 22 knots

Air temperature 4.0° C
Visibility: greater than 4.3 NM
Dewpoint 2.0° C
Present weather: Light rain.

Last reported at 2014-Apr-17 20:20 UTC.
Time now 2014-Apr-17 21:51 UTC

Location: N 62°34' E 006°07'.
View on Google Maps.

See reports from other nearby stations

Tides Stations Pressure Air Temp Water Temp Dewpoint Dewpoint depression Visibility Wind Speed Wind Dir Waves Ship positions

  
sailing weather and tide predictions

ALESUND / VIGRA weather

date/time (UTC)wind fromknots sea level pressurealtimeterstation pressurevisibilityair tempwater tempwave heightnotes
2014-Apr-17 20:20 020 22 4.3 4.0 Light rain.
2014-Apr-17 19:50 020 22 5.4 5.0 Light drizzle.
2014-Apr-17 19:20 010 20 5.4 5.0
2014-Apr-17 18:50 360 16 5.4 5.0
2014-Apr-17 18:20 330 10 5.4 6.0 Showers in the vicinity.
2014-Apr-17 17:50 300 8 5.4 6.0 Light rain showers.
2014-Apr-17 16:20 270 11 5.4 6.0
2014-Apr-17 15:20 250 15 5.4 7.0 Showers in the vicinity.
2014-Apr-17 14:50 240 12 5.4 6.0 Light drizzle.
2014-Apr-17 14:20 240 12 5.4 5.0
2014-Apr-17 13:50 230 13 5.4 5.0 Light rain.
2014-Apr-17 13:20 240 12 5.4 5.0 Light drizzle.
2014-Apr-17 12:50 250 11 5.4 5.0 Light drizzle.
2014-Apr-17 12:20 250 12 5.4 5.0 Light drizzle.
2014-Apr-17 11:50 260 12 5.4 5.0
2014-Apr-17 11:20 270 12 5.4 5.0 Light drizzle.
2014-Apr-17 10:50 270 11 5.4 5.0 Light drizzle.
2014-Apr-17 10:20 250 13 5.4 5.0 Light drizzle.
2014-Apr-17 09:50 240 15 5.4 5.0 Light rain.
2014-Apr-17 09:20 240 19 5.4 6.0
2014-Apr-17 08:50 240 20 5.4 6.0 Light drizzle.
2014-Apr-17 08:20 220 16 5.4 8.0
2014-Apr-17 07:50 210 12 5.4 8.0
2014-Apr-17 07:20 200 11 5.4 7.0 Light drizzle.
2014-Apr-17 06:50 200 10 5.4 7.0 Light drizzle.
2014-Apr-17 06:20 200 11 5.4 8.0 Light drizzle.
2014-Apr-17 05:50 210 11 5.4 8.0 Light drizzle.
2014-Apr-17 05:20 200 13 5.4 8.0 Showers in the vicinity.
2014-Apr-17 04:50 200 11 5.4 8.0 Showers in the vicinity.
2014-Apr-17 04:20 200 10 5.4 8.0 Showers in the vicinity.
2014-Apr-17 03:50 200 10 5.4 8.0 Light drizzle.
2014-Apr-17 03:20 200 12 5.4 7.0 Showers in the vicinity.
2014-Apr-17 02:50 200 13 5.4 8.0
2014-Apr-17 02:20 210 15 5.4 8.0 Light drizzle.
2014-Apr-17 01:50 210 15 5.4 7.0 Light drizzle.
2014-Apr-17 01:20 210 16 5.4 7.0 Light rain.
2014-Apr-17 00:50 200 15 5.4 8.0 Light drizzle.
2014-Apr-17 00:20 210 15 5.4 7.0
2014-Apr-16 23:50 200 14 5.4 8.0 Light drizzle.
2014-Apr-16 23:20 210 17 5.4 8.0 Light drizzle.
2014-Apr-16 22:50 210 15 5.4 8.0
2014-Apr-16 22:20 210 14 5.4 8.0 Light drizzle.
2014-Apr-16 21:50 210 14 5.4 8.0 Light drizzle.
2014-Apr-16 21:20 210 14 5.4 8.0 Drizzle.
2014-Apr-16 20:50 210 13 5.4 8.0 Light rain.
2014-Apr-16 20:20 210 14 5.4 8.0 Light rain.
2014-Apr-16 19:50 210 14 5.4 8.0 Light drizzle.
2014-Apr-16 19:20 210 15 5.4 8.0 Light drizzle.
2014-Apr-16 18:50 200 15 5.4 8.0
2014-Apr-16 18:20 200 15 5.4 8.0 Light drizzle.
2014-Apr-16 17:50 200 16 5.4 8.0 Light rain.
2014-Apr-16 17:20 210 14 5.4 8.0 Light drizzle.
2014-Apr-16 16:50 200 14 5.4 8.0 Light drizzle.
2014-Apr-16 16:20 200 15 5.4 8.0 Light rain.
2014-Apr-16 15:50 200 14 5.4 8.0 Light drizzle.
2014-Apr-16 15:20 200 14 5.4 9.0 Light rain.
2014-Apr-16 14:50 200 14 5.4 8.0 Light drizzle.
2014-Apr-16 14:20 200 15 5.4 8.0 Light drizzle.
2014-Apr-16 13:50 210 13 5.4 9.0 Light drizzle.
2014-Apr-16 13:20 210 15 5.4 9.0 Light drizzle.
2014-Apr-16 12:50 210 17 5.4 9.0
2014-Apr-16 12:20 210 15 5.4 9.0 Light drizzle.
2014-Apr-16 11:50 210 18 5.410.0
2014-Apr-16 11:20 210 22 gusting 33 5.410.0
2014-Apr-16 10:50 200 23 gusting 34 11.0
2014-Apr-16 10:20 190 22 5.410.0
2014-Apr-16 09:50 200 19 5.410.0
2014-Apr-16 09:20 200 19 5.410.0
2014-Apr-16 08:20 200 20 5.4 9.0
2014-Apr-16 07:50 190 17 5.4 9.0
2014-Apr-16 07:20 190 12 5.4 9.0
2014-Apr-16 06:50 190 16 gusting 27 5.4 8.0
2014-Apr-16 06:20 200 17 5.4 9.0
2014-Apr-16 05:50 200 14 5.4 8.0
2014-Apr-16 05:20 190 14 gusting 24 5.4 7.0
2014-Apr-16 04:50 200 14 5.4 8.0
2014-Apr-16 04:20 200 16 5.4 7.0
2014-Apr-16 03:50 200 15 5.4 7.0
2014-Apr-16 03:20 200 15 gusting 25 5.4 7.0
2014-Apr-16 02:50 200 16 5.4 7.0
2014-Apr-16 02:20 210 14 5.4 7.0
2014-Apr-16 01:50 200 13 5.4 7.0
2014-Apr-16 01:20 200 13 5.4 7.0
2014-Apr-16 00:50 210 17 5.4 7.0
2014-Apr-16 00:20 210 15 5.4 7.0
2014-Apr-15 23:50 200 12 5.4 7.0
2014-Apr-15 23:20 210 12 5.4 6.0
2014-Apr-15 22:50 200 11 5.4 6.0
2014-Apr-15 22:20 200 11 5.4 7.0
2014-Apr-15 21:50 200 10 5.4 6.0
2014-Apr-15 21:20 190 13 5.4 6.0